This is the latest recevied weather packets stored in our database for station/object EA8AYY-10. If no packets are shown the sender has not sent any weather packets the latest 10 day(s).
| Time | Temp. | Humidity | Pressure | Rain* | Wind** | Luminosity | Snow |
|---|---|---|---|---|---|---|---|
| 1788154861 | 72° F | 71% | 767.2 mmHg | - | - | - | - |
| 1788153956 | 71° F | 70% | 767.2 mmHg | - | - | - | - |
| 1788153056 | 68° F | 74% | 767.1 mmHg | - | - | - | - |
| 1788152156 | 68° F | 75% | 767.2 mmHg | - | - | - | - |
| 1788151255 | 70° F | 72% | 767.2 mmHg | - | - | - | - |
| 1788150352 | 67° F | 74% | 767.2 mmHg | - | - | - | - |
| 1788149451 | 68° F | 74% | 767.2 mmHg | - | - | - | - |
| 1788148570 | 67° F | 73% | 767.3 mmHg | - | - | - | - |
| 1788147670 | 71° F | 72% | 767.4 mmHg | - | - | - | - |
| 1788146764 | 72° F | 69% | 767.5 mmHg | - | - | - | - |
| 1788145861 | 67° F | 74% | 767.5 mmHg | - | - | - | - |
| 1788144961 | 68° F | 72% | 767.5 mmHg | - | - | - | - |
| 1788142260 | 69° F | 72% | 767.8 mmHg | - | - | - | - |
| 1788141360 | 69° F | 71% | 767.8 mmHg | - | - | - | - |
| 1788140460 | 70° F | 70% | 767.8 mmHg | - | - | - | - |
| 1788139560 | 75° F | 66% | 768 mmHg | - | - | - | - |
| 1788138657 | 70° F | 71% | 768.2 mmHg | - | - | - | - |
| 1788137757 | 71° F | 70% | 768.3 mmHg | - | - | - | - |
| 1788136857 | 71° F | 70% | 768.4 mmHg | - | - | - | - |
| 1788135957 | 71° F | 70% | 768.4 mmHg | - | - | - | - |
| 1788135056 | 71° F | 70% | 768.5 mmHg | - | - | - | - |
| 1788134156 | 72° F | 68% | 768.4 mmHg | - | - | - | - |
| 1788133255 | 71° F | 70% | 768.4 mmHg | - | - | - | - |
| 1788132355 | 72° F | 69% | 768.5 mmHg | - | - | - | - |
| 1788131455 | 70° F | 70% | 768.6 mmHg | - | - | - | - |
* Rain since midnight (hover to see other rain measurements)
** Current wind speed in m/s (hover to see current wind gust speed)